Aeroporto :
LOGIN :

Iscrizione | Disclaimer

   EN    FR    IT 

 










Sommario :    VFR   VFR Marginale   IFR   IFR Intensivo   IFR Molto Intensivo
Visibilità : 
Base nubi : 
>= 8 km
>= 3000ft
5 / 8 km
1000 / 3000 ft
1500m / 5 km
500 / 1000 ft
800 / 1500m
200 / 500 ft
< 800m
< 200 ft
Simboli :   Temporali  Nebbia  Neve Forte  Precipitazioni Forti  Vento > 20 kt
SIGMETs :   Varie  Temporali  Ghiacco  Turbolenza  Onda orograficha  Ceneri Vulcaniche






- Altitudine del aeroporto : 16 ft
- Codice IATA : SDR


LEXJ - Santander Cantabria

ULTIMO METAR :
  • 250600Z AUTO VRB02KT 7000 NCD 14/13 Q1028

METARs OBSOLETI :
  • 250530Z AUTO VRB01KT 7000 NSC 13/12 Q1028
  • 250500Z AUTO 00000KT 7000 NSC 12/11 Q1028
  • 250430Z AUTO 25003KT 230V290 7000 NSC 13/12 Q1028
  • 250400Z AUTO 00000KT 5000 BR NSC 13/11 Q1027
  • 250330Z AUTO VRB01KT 7000 NCD 13/12 Q1027

TAF TAF LEXJ
Valido dal 25 a 03 ore il 26 a 03 ore UTC


250200Z 2503/2603 VRB03KT CAVOK TX20/2513Z TN11/2506Z
BECMG 2509/2513 06010KT
BECMG 2518/2521 VRB03KT



MetMap, La meteo Aeronautica in un colpo d'occhio ! - Copyright ORBIFLY Dicembre 2007 - Disclaimer

ORBIFLY MET'MAP TEAM :

Programmazione e sviluppo : Alexandra Zaïnal
Concezione : Baudouin d'Aumeries
Aiuto per la programmazione : Marc-Olivier Méhu
Supporto tecnico e logistico : Manuel Goepfert
Aiuto per la traduzione : Arnaldo La Scala

Contatto : metmap@orbifly.com




FONTI E CREDITI :

   NOAA